sensor_id;sensor_type;location;lat;lon;timestamp;pressure;altitude;pressure_sealevel;temperature;humidity
21960;BME280;11144;43.030;25.108;2023-02-10T00:01:16;101509.13;;;-9.31;100.00
21960;BME280;11144;43.030;25.108;2023-02-10T00:02:51;101507.84;;;-9.36;100.00
21960;BME280;11144;43.030;25.108;2023-02-10T00:04:24;101506.50;;;-9.42;100.00
21960;BME280;11144;43.030;25.108;2023-02-10T00:05:59;101504.19;;;-9.61;100.00
21960;BME280;11144;43.030;25.108;2023-02-10T00:07:32;101509.81;;;-9.65;100.00
21960;BME280;11144;43.030;25.108;2023-02-10T00:09:05;101509.59;;;-9.68;100.00
21960;BME280;11144;43.030;25.108;2023-02-10T00:10:39;101513.19;;;-9.76;100.00
21960;BME280;11144;43.030;25.108;2023-02-10T00:12:12;101518.31;;;-9.76;100.00
21960;BME280;11144;43.030;25.108;2023-02-10T00:13:45;101520.81;;;-9.66;100.00
21960;BME280;11144;43.030;25.108;2023-02-10T00:15:19;101518.50;;;-9.63;100.00
21960;BME280;11144;43.030;25.108;2023-02-10T00:16:52;101511.78;;;-9.51;100.00
21960;BME280;11144;43.030;25.108;2023-02-10T00:18:25;101510.50;;;-9.46;100.00
21960;BME280;11144;43.030;25.108;2023-02-10T00:19:58;101514.06;;;-9.44;100.00
21960;BME280;11144;43.030;25.108;2023-02-10T00:21:33;101507.53;;;-9.40;100.00
21960;BME280;11144;43.030;25.108;2023-02-10T00:23:07;101507.59;;;-9.39;100.00
21960;BME280;11144;43.030;25.108;2023-02-10T00:24:40;101499.94;;;-9.39;100.00
21960;BME280;11144;43.030;25.108;2023-02-10T00:26:13;101509.41;;;-9.38;100.00
21960;BME280;11144;43.030;25.108;2023-02-10T00:27:47;101511.19;;;-9.37;100.00
21960;BME280;11144;43.030;25.108;2023-02-10T00:29:21;101509.66;;;-9.35;100.00
21960;BME280;11144;43.030;25.108;2023-02-10T00:30:55;101510.41;;;-9.36;100.00
21960;BME280;11144;43.030;25.108;2023-02-10T00:32:28;101502.28;;;-9.42;100.00
21960;BME280;11144;43.030;25.108;2023-02-10T00:34:01;101502.03;;;-9.45;100.00
21960;BME280;11144;43.030;25.108;2023-02-10T00:35:36;101503.81;;;-9.44;100.00
21960;BME280;11144;43.030;25.108;2023-02-10T00:37:10;101498.28;;;-9.38;100.00
21960;BME280;11144;43.030;25.108;2023-02-10T00:38:44;101501.38;;;-9.42;100.00
21960;BME280;11144;43.030;25.108;2023-02-10T00:40:17;101498.69;;;-9.44;100.00
21960;BME280;11144;43.030;25.108;2023-02-10T00:41:50;101497.16;;;-9.42;100.00
21960;BME280;11144;43.030;25.108;2023-02-10T00:43:23;101497.59;;;-9.47;100.00
21960;BME280;11144;43.030;25.108;2023-02-10T00:44:55;101496.44;;;-9.51;100.00
21960;BME280;11144;43.030;25.108;2023-02-10T00:46:29;101496.44;;;-9.51;100.00
21960;BME280;11144;43.030;25.108;2023-02-10T00:48:02;101496.44;;;-9.51;100.00
21960;BME280;11144;43.030;25.108;2023-02-10T00:49:35;101497.47;;;-9.49;100.00
21960;BME280;11144;43.030;25.108;2023-02-10T00:51:09;101484.91;;;-9.46;100.00
21960;BME280;11144;43.030;25.108;2023-02-10T00:52:43;101487.13;;;-9.39;100.00
21960;BME280;11144;43.030;25.108;2023-02-10T00:54:15;101489.19;;;-9.35;100.00
21960;BME280;11144;43.030;25.108;2023-02-10T00:55:49;101478.94;;;-9.35;100.00
21960;BME280;11144;43.030;25.108;2023-02-10T00:57:22;101483.16;;;-9.35;100.00
21960;BME280;11144;43.030;25.108;2023-02-10T00:58:56;101485.84;;;-9.34;100.00
21960;BME280;11144;43.030;25.108;2023-02-10T01:00:29;101482.25;;;-9.36;100.00
21960;BME280;11144;43.030;25.108;2023-02-10T01:02:03;101471.56;;;-9.42;100.00
21960;BME280;11144;43.030;25.108;2023-02-10T01:03:36;101481.31;;;-9.48;100.00
21960;BME280;11144;43.030;25.108;2023-02-10T01:05:09;101476.91;;;-9.39;100.00
21960;BME280;11144;43.030;25.108;2023-02-10T01:06:43;101476.16;;;-9.38;100.00
21960;BME280;11144;43.030;25.108;2023-02-10T01:08:17;101472.56;;;-9.40;100.00
21960;BME280;11144;43.030;25.108;2023-02-10T01:09:51;101469.75;;;-9.43;100.00
21960;BME280;11144;43.030;25.108;2023-02-10T01:11:24;101467.50;;;-9.50;100.00
21960;BME280;11144;43.030;25.108;2023-02-10T01:12:57;101477.53;;;-9.53;100.00
21960;BME280;11144;43.030;25.108;2023-02-10T01:14:33;101476.75;;;-9.52;100.00
21960;BME280;11144;43.030;25.108;2023-02-10T01:16:09;101465.56;;;-9.64;100.00
21960;BME280;11144;43.030;25.108;2023-02-10T01:17:43;101469.22;;;-9.72;100.00
21960;BME280;11144;43.030;25.108;2023-02-10T01:19:16;101475.63;;;-9.77;100.00
21960;BME280;11144;43.030;25.108;2023-02-10T01:20:51;101480.28;;;-9.83;100.00
21960;BME280;11144;43.030;25.108;2023-02-10T01:22:24;101476.94;;;-9.82;100.00
21960;BME280;11144;43.030;25.108;2023-02-10T01:23:59;101467.06;;;-9.77;100.00
21960;BME280;11144;43.030;25.108;2023-02-10T01:25:36;101474.25;;;-9.83;100.00
21960;BME280;11144;43.030;25.108;2023-02-10T01:27:08;101468.63;;;-9.89;100.00
21960;BME280;11144;43.030;25.108;2023-02-10T01:28:44;101464.72;;;-9.96;100.00
21960;BME280;11144;43.030;25.108;2023-02-10T01:30:17;101461.44;;;-10.05;100.00
21960;BME280;11144;43.030;25.108;2023-02-10T01:31:50;101466.09;;;-10.11;100.00
21960;BME280;11144;43.030;25.108;2023-02-10T01:33:23;101471.75;;;-10.15;100.00
21960;BME280;11144;43.030;25.108;2023-02-10T01:34:57;101470.72;;;-10.17;100.00
21960;BME280;11144;43.030;25.108;2023-02-10T01:36:30;101473.78;;;-10.21;100.00
21960;BME280;11144;43.030;25.108;2023-02-10T01:38:03;101473.53;;;-10.14;100.00
21960;BME280;11144;43.030;25.108;2023-02-10T01:39:37;101476.31;;;-10.11;100.00
21960;BME280;11144;43.030;25.108;2023-02-10T01:41:10;101477.84;;;-10.13;100.00
21960;BME280;11144;43.030;25.108;2023-02-10T01:42:45;101479.66;;;-10.12;100.00
21960;BME280;11144;43.030;25.108;2023-02-10T01:46:30;101489.88;;;-10.12;100.00
21960;BME280;11144;43.030;25.108;2023-02-10T01:48:06;101469.44;;;-10.12;100.00
21960;BME280;11144;43.030;25.108;2023-02-10T01:49:45;101469.19;;;-10.15;100.00
21960;BME280;11144;43.030;25.108;2023-02-10T01:51:23;101476.06;;;-10.14;100.00
21960;BME280;11144;43.030;25.108;2023-02-10T01:52:59;101471.88;;;-10.13;100.00
21960;BME280;11144;43.030;25.108;2023-02-10T01:54:34;101473.41;;;-10.15;100.00
21960;BME280;11144;43.030;25.108;2023-02-10T01:56:12;101462.06;;;-10.19;100.00
21960;BME280;11144;43.030;25.108;2023-02-10T01:57:50;101473.03;;;-10.20;100.00
21960;BME280;11144;43.030;25.108;2023-02-10T01:59:28;101474.81;;;-10.19;100.00
21960;BME280;11144;43.030;25.108;2023-02-10T02:01:03;101473.16;;;-10.18;100.00
21960;BME280;11144;43.030;25.108;2023-02-10T02:02:36;101482.09;;;-10.13;100.00
21960;BME280;11144;43.030;25.108;2023-02-10T02:04:10;101478.34;;;-10.07;100.00
21960;BME280;11144;43.030;25.108;2023-02-10T02:05:44;101470.69;;;-10.07;100.00
21960;BME280;11144;43.030;25.108;2023-02-10T02:07:19;101472.34;;;-10.07;100.00
21960;BME280;11144;43.030;25.108;2023-02-10T02:08:54;101470.06;;;-10.14;100.00
21960;BME280;11144;43.030;25.108;2023-02-10T02:10:38;101466.13;;;-10.21;100.00
21960;BME280;11144;43.030;25.108;2023-02-10T02:12:18;101469.34;;;-10.23;100.00
21960;BME280;11144;43.030;25.108;2023-02-10T02:14:14;101470.25;;;-10.23;100.00
21960;BME280;11144;43.030;25.108;2023-02-10T02:15:54;101468.44;;;-10.24;100.00
21960;BME280;11144;43.030;25.108;2023-02-10T02:17:38;101468.69;;;-10.21;100.00
21960;BME280;11144;43.030;25.108;2023-02-10T02:19:32;101470.72;;;-10.17;100.00
21960;BME280;11144;43.030;25.108;2023-02-10T02:21:38;101466.63;;;-10.15;100.00
21960;BME280;11144;43.030;25.108;2023-02-10T02:23:48;101461.56;;;-10.25;100.00
21960;BME280;11144;43.030;25.108;2023-02-10T02:25:40;101457.47;;;-10.23;100.00
21960;BME280;11144;43.030;25.108;2023-02-10T02:30:16;101460.50;;;-10.17;100.00
21960;BME280;11144;43.030;25.108;2023-02-10T02:31:59;101459.50;;;-10.19;100.00
21960;BME280;11144;43.030;25.108;2023-02-10T02:33:39;101456.94;;;-10.19;100.00
21960;BME280;11144;43.030;25.108;2023-02-10T02:35:17;101452.47;;;-10.21;100.00
21960;BME280;11144;43.030;25.108;2023-02-10T02:36:57;101450.47;;;-10.25;100.00
21960;BME280;11144;43.030;25.108;2023-02-10T02:38:37;101451.88;;;-10.39;100.00
21960;BME280;11144;43.030;25.108;2023-02-10T02:40:14;101447.56;;;-10.40;100.00
21960;BME280;11144;43.030;25.108;2023-02-10T02:41:47;101446.56;;;-10.42;100.00
21960;BME280;11144;43.030;25.108;2023-02-10T02:43:31;101448.06;;;-10.44;100.00
21960;BME280;11144;43.030;25.108;2023-02-10T02:45:06;101443.75;;;-10.45;100.00
21960;BME280;11144;43.030;25.108;2023-02-10T02:46:50;101441.94;;;-10.46;100.00
21960;BME280;11144;43.030;25.108;2023-02-10T02:48:44;101427.38;;;-10.47;100.00
21960;BME280;11144;43.030;25.108;2023-02-10T02:50:25;101428.44;;;-10.55;100.00
21960;BME280;11144;43.030;25.108;2023-02-10T02:52:02;101439.72;;;-10.63;100.00
21960;BME280;11144;43.030;25.108;2023-02-10T02:53:41;101430.53;;;-10.71;100.00
21960;BME280;11144;43.030;25.108;2023-02-10T02:55:25;101426.97;;;-10.73;100.00
21960;BME280;11144;43.030;25.108;2023-02-10T02:57:08;101435.88;;;-10.68;100.00
21960;BME280;11144;43.030;25.108;2023-02-10T02:58:47;101425.91;;;-10.65;100.00
21960;BME280;11144;43.030;25.108;2023-02-10T03:00:28;101425.66;;;-10.68;100.00
21960;BME280;11144;43.030;25.108;2023-02-10T03:02:04;101424.38;;;-10.63;100.00
21960;BME280;11144;43.030;25.108;2023-02-10T03:03:41;101420.81;;;-10.65;100.00
21960;BME280;11144;43.030;25.108;2023-02-10T03:05:17;101423.47;;;-10.63;100.00
21960;BME280;11144;43.030;25.108;2023-02-10T03:06:50;101428.84;;;-10.60;100.00
21960;BME280;11144;43.030;25.108;2023-02-10T03:08:32;101420.16;;;-10.62;100.00
21960;BME280;11144;43.030;25.108;2023-02-10T03:10:06;101420.81;;;-10.65;100.00
21960;BME280;11144;43.030;25.108;2023-02-10T03:11:39;101425.25;;;-10.62;100.00
21960;BME280;11144;43.030;25.108;2023-02-10T03:13:12;101423.09;;;-10.68;100.00
21960;BME280;11144;43.030;25.108;2023-02-10T03:14:46;101421.72;;;-10.64;100.00
21960;BME280;11144;43.030;25.108;2023-02-10T03:16:19;101410.06;;;-10.61;100.00
21960;BME280;11144;43.030;25.108;2023-02-10T03:17:52;101410.06;;;-10.61;100.00
21960;BME280;11144;43.030;25.108;2023-02-10T03:19:26;101407.03;;;-10.67;100.00
21960;BME280;11144;43.030;25.108;2023-02-10T03:20:59;101390.22;;;-10.85;100.00
21960;BME280;11144;43.030;25.108;2023-02-10T03:22:32;101408.88;;;-10.86;100.00
21960;BME280;11144;43.030;25.108;2023-02-10T03:24:06;101402.09;;;-10.85;100.00
21960;BME280;11144;43.030;25.108;2023-02-10T03:25:40;101410.66;;;-10.85;100.00
21960;BME280;11144;43.030;25.108;2023-02-10T03:27:13;101413.97;;;-10.86;100.00
21960;BME280;11144;43.030;25.108;2023-02-10T03:28:47;101412.44;;;-10.84;100.00
21960;BME280;11144;43.030;25.108;2023-02-10T03:30:20;101410.91;;;-10.82;100.00
21960;BME280;11144;43.030;25.108;2023-02-10T03:31:53;101405.56;;;-10.85;100.00
21960;BME280;11144;43.030;25.108;2023-02-10T03:33:26;101397.13;;;-10.84;100.00
21960;BME280;11144;43.030;25.108;2023-02-10T03:35:01;101398.16;;;-10.82;100.00
21960;BME280;11144;43.030;25.108;2023-02-10T03:36:34;101392.25;;;-10.81;100.00
21960;BME280;11144;43.030;25.108;2023-02-10T03:38:07;101387.41;;;-10.78;100.00
21960;BME280;11144;43.030;25.108;2023-02-10T03:39:40;101384.06;;;-10.77;100.00
21960;BME280;11144;43.030;25.108;2023-02-10T03:41:13;101385.38;;;-10.82;100.00
21960;BME280;11144;43.030;25.108;2023-02-10T03:42:46;101384.34;;;-10.84;100.00
21960;BME280;11144;43.030;25.108;2023-02-10T03:44:19;101385.78;;;-10.87;100.00
21960;BME280;11144;43.030;25.108;2023-02-10T03:45:53;101374.16;;;-10.94;100.00
21960;BME280;11144;43.030;25.108;2023-02-10T03:47:26;101374.66;;;-10.88;100.00
21960;BME280;11144;43.030;25.108;2023-02-10T03:48:59;101382.31;;;-10.88;100.00
21960;BME280;11144;43.030;25.108;2023-02-10T03:50:34;101375.91;;;-10.83;100.00
21960;BME280;11144;43.030;25.108;2023-02-10T03:52:06;101375.78;;;-10.84;100.00
21960;BME280;11144;43.030;25.108;2023-02-10T03:53:40;101362.69;;;-10.99;100.00
21960;BME280;11144;43.030;25.108;2023-02-10T03:55:13;101370.13;;;-11.12;100.00
21960;BME280;11144;43.030;25.108;2023-02-10T03:56:49;101364.25;;;-11.11;100.00
21960;BME280;11144;43.030;25.108;2023-02-10T03:58:22;101363.59;;;-11.08;100.00
21960;BME280;11144;43.030;25.108;2023-02-10T03:59:55;101356.34;;;-11.14;100.00
21960;BME280;11144;43.030;25.108;2023-02-10T04:01:29;101366.31;;;-11.27;100.00
21960;BME280;11144;43.030;25.108;2023-02-10T04:03:02;101370.94;;;-11.33;100.00
21960;BME280;11144;43.030;25.108;2023-02-10T04:04:36;101369.16;;;-11.34;100.00
21960;BME280;11144;43.030;25.108;2023-02-10T04:06:11;101372.81;;;-11.41;100.00
21960;BME280;11144;43.030;25.108;2023-02-10T04:07:44;101373.47;;;-11.43;100.00
21960;BME280;11144;43.030;25.108;2023-02-10T04:09:17;101372.47;;;-11.55;100.00
21960;BME280;11144;43.030;25.108;2023-02-10T04:10:50;101377.56;;;-11.55;100.00
21960;BME280;11144;43.030;25.108;2023-02-10T04:12:23;101380.63;;;-11.59;100.00
21960;BME280;11144;43.030;25.108;2023-02-10T04:13:57;101378.81;;;-11.60;100.00
21960;BME280;11144;43.030;25.108;2023-02-10T04:15:30;101371.97;;;-11.61;100.00
21960;BME280;11144;43.030;25.108;2023-02-10T04:17:03;101379.06;;;-11.57;100.00
21960;BME280;11144;43.030;25.108;2023-02-10T04:18:37;101382.94;;;-11.52;100.00
21960;BME280;11144;43.030;25.108;2023-02-10T04:20:12;101376.53;;;-11.47;100.00
21960;BME280;11144;43.030;25.108;2023-02-10T04:21:46;101378.31;;;-11.46;100.00
21960;BME280;11144;43.030;25.108;2023-02-10T04:23:21;101376.53;;;-11.47;100.00
21960;BME280;11144;43.030;25.108;2023-02-10T04:24:53;101378.44;;;-11.45;100.00
21960;BME280;11144;43.030;25.108;2023-02-10T04:26:26;101378.06;;;-11.49;100.00
21960;BME280;11144;43.030;25.108;2023-02-10T04:28:00;101369.91;;;-11.45;100.00
21960;BME280;11144;43.030;25.108;2023-02-10T04:29:33;101375.03;;;-11.45;100.00
21960;BME280;11144;43.030;25.108;2023-02-10T04:31:10;101373.22;;;-11.46;100.00
21960;BME280;11144;43.030;25.108;2023-02-10T04:32:43;101372.47;;;-11.45;100.00
21960;BME280;11144;43.030;25.108;2023-02-10T04:34:16;101375.75;;;-11.46;100.00
21960;BME280;11144;43.030;25.108;2023-02-10T04:35:50;101371.19;;;-11.50;100.00
21960;BME280;11144;43.030;25.108;2023-02-10T04:37:25;101370.53;;;-11.48;100.00
21960;BME280;11144;43.030;25.108;2023-02-10T04:38:58;101360.47;;;-11.46;100.00
21960;BME280;11144;43.030;25.108;2023-02-10T04:40:31;101363.00;;;-11.46;100.00
21960;BME280;11144;43.030;25.108;2023-02-10T04:42:05;101371.94;;;-11.51;100.00
21960;BME280;11144;43.030;25.108;2023-02-10T04:43:38;101373.72;;;-11.50;100.00
21960;BME280;11144;43.030;25.108;2023-02-10T04:45:11;101369.66;;;-11.48;100.00
21960;BME280;11144;43.030;25.108;2023-02-10T04:46:45;101360.72;;;-11.53;100.00
21960;BME280;11144;43.030;25.108;2023-02-10T04:48:18;101374.50;;;-11.51;100.00
21960;BME280;11144;43.030;25.108;2023-02-10T04:49:53;101372.47;;;-11.55;100.00
21960;BME280;11144;43.030;25.108;2023-02-10T04:51:26;101369.28;;;-11.63;100.00
21960;BME280;11144;43.030;25.108;2023-02-10T04:53:00;101361.91;;;-11.70;100.00
21960;BME280;11144;43.030;25.108;2023-02-10T04:54:34;101368.91;;;-11.77;100.00
21960;BME280;11144;43.030;25.108;2023-02-10T04:56:07;101379.13;;;-11.77;100.00
21960;BME280;11144;43.030;25.108;2023-02-10T04:57:40;101379.13;;;-11.77;100.00
21960;BME280;11144;43.030;25.108;2023-02-10T04:59:14;101374.00;;;-11.77;100.00
21960;BME280;11144;43.030;25.108;2023-02-10T05:00:47;101365.72;;;-11.85;100.00
21960;BME280;11144;43.030;25.108;2023-02-10T05:02:20;101375.31;;;-11.82;100.00
21960;BME280;11144;43.030;25.108;2023-02-10T05:03:52;101383.69;;;-11.73;100.00
21960;BME280;11144;43.030;25.108;2023-02-10T05:05:26;101387.53;;;-11.78;100.00
21960;BME280;11144;43.030;25.108;2023-02-10T05:06:59;101385.50;;;-11.82;100.00
21960;BME280;11144;43.030;25.108;2023-02-10T05:08:35;101389.81;;;-11.81;100.00
21960;BME280;11144;43.030;25.108;2023-02-10T05:10:12;101383.69;;;-11.83;100.00
21960;BME280;11144;43.030;25.108;2023-02-10T05:11:45;101388.78;;;-11.83;100.00
21960;BME280;11144;43.030;25.108;2023-02-10T05:13:19;101392.38;;;-11.81;100.00
21960;BME280;11144;43.030;25.108;2023-02-10T05:14:52;101396.97;;;-11.77;100.00
21960;BME280;11144;43.030;25.108;2023-02-10T05:16:25;101392.00;;;-11.76;100.00
21960;BME280;11144;43.030;25.108;2023-02-10T05:17:58;101406.81;;;-11.62;100.00
21960;BME280;11144;43.030;25.108;2023-02-10T05:19:32;101417.00;;;-11.62;100.00
21960;BME280;11144;43.030;25.108;2023-02-10T05:21:06;101407.66;;;-11.61;100.00
21960;BME280;11144;43.030;25.108;2023-02-10T05:22:39;101414.31;;;-11.63;100.00
21960;BME280;11144;43.030;25.108;2023-02-10T05:24:15;101428.06;;;-11.61;100.00
21960;BME280;11144;43.030;25.108;2023-02-10T05:25:48;101400.78;;;-11.62;100.00
21960;BME280;11144;43.030;25.108;2023-02-10T05:27:21;101410.22;;;-11.61;100.00
21960;BME280;11144;43.030;25.108;2023-02-10T05:28:54;101409.41;;;-11.60;100.00
21960;BME280;11144;43.030;25.108;2023-02-10T05:30:27;101422.47;;;-11.67;100.00
21960;BME280;11144;43.030;25.108;2023-02-10T05:32:00;101417.38;;;-11.67;100.00
21960;BME280;11144;43.030;25.108;2023-02-10T05:33:34;101412.13;;;-11.69;100.00
21960;BME280;11144;43.030;25.108;2023-02-10T05:35:08;101424.13;;;-11.68;100.00
21960;BME280;11144;43.030;25.108;2023-02-10T05:36:41;101413.78;;;-11.69;100.00
21960;BME280;11144;43.030;25.108;2023-02-10T05:38:15;101414.50;;;-11.60;100.00
21960;BME280;11144;43.030;25.108;2023-02-10T05:39:50;101423.72;;;-11.52;100.00
21960;BME280;11144;43.030;25.108;2023-02-10T05:41:23;101415.56;;;-11.48;100.00
21960;BME280;11144;43.030;25.108;2023-02-10T05:42:56;101422.69;;;-11.44;100.00
21960;BME280;11144;43.030;25.108;2023-02-10T05:44:30;101413.38;;;-11.44;100.00
21960;BME280;11144;43.030;25.108;2023-02-10T05:46:04;101421.16;;;-11.42;100.00
21960;BME280;11144;43.030;25.108;2023-02-10T05:47:37;101411.22;;;-11.39;100.00
21960;BME280;11144;43.030;25.108;2023-02-10T05:49:11;101407.03;;;-11.39;100.00
21960;BME280;11144;43.030;25.108;2023-02-10T05:50:44;101411.22;;;-11.39;100.00
21960;BME280;11144;43.030;25.108;2023-02-10T05:52:18;101415.81;;;-11.35;100.00
21960;BME280;11144;43.030;25.108;2023-02-10T05:53:51;101420.16;;;-11.34;100.00
21960;BME280;11144;43.030;25.108;2023-02-10T05:55:26;101419.53;;;-11.32;100.00
21960;BME280;11144;43.030;25.108;2023-02-10T05:57:00;101414.78;;;-11.27;100.00
21960;BME280;11144;43.030;25.108;2023-02-10T05:58:33;101410.19;;;-11.31;100.00
21960;BME280;11144;43.030;25.108;2023-02-10T06:00:08;101405.84;;;-11.32;100.00
21960;BME280;11144;43.030;25.108;2023-02-10T06:01:44;101407.63;;;-11.31;100.00
21960;BME280;11144;43.030;25.108;2023-02-10T06:03:18;101410.44;;;-11.28;100.00
21960;BME280;11144;43.030;25.108;2023-02-10T06:04:51;101408.94;;;-11.26;100.00
21960;BME280;11144;43.030;25.108;2023-02-10T06:06:24;101422.69;;;-11.24;100.00
21960;BME280;11144;43.030;25.108;2023-02-10T06:07:57;101401.28;;;-11.36;100.00
21960;BME280;11144;43.030;25.108;2023-02-10T06:09:31;101419.88;;;-11.17;100.00
21960;BME280;11144;43.030;25.108;2023-02-10T06:11:05;101406.88;;;-11.20;100.00
21960;BME280;11144;43.030;25.108;2023-02-10T06:12:39;101420.13;;;-11.04;100.00
21960;BME280;11144;43.030;25.108;2023-02-10T06:14:12;101416.28;;;-10.99;100.00
21960;BME280;11144;43.030;25.108;2023-02-10T06:15:45;101420.09;;;-10.94;100.00
21960;BME280;11144;43.030;25.108;2023-02-10T06:17:19;101417.03;;;-10.90;100.00
21960;BME280;11144;43.030;25.108;2023-02-10T06:18:52;101414.97;;;-10.84;100.00
21960;BME280;11144;43.030;25.108;2023-02-10T06:20:25;101418.69;;;-10.80;100.00
21960;BME280;11144;43.030;25.108;2023-02-10T06:21:58;101420.72;;;-10.76;100.00
21960;BME280;11144;43.030;25.108;2023-02-10T06:23:32;101420.94;;;-10.73;100.00
21960;BME280;11144;43.030;25.108;2023-02-10T06:25:05;101431.53;;;-10.69;100.00
21960;BME280;11144;43.030;25.108;2023-02-10T06:26:40;101439.06;;;-10.60;100.00
21960;BME280;11144;43.030;25.108;2023-02-10T06:28:13;101434.59;;;-10.53;100.00
21960;BME280;11144;43.030;25.108;2023-02-10T06:29:47;101440.16;;;-10.47;100.00
21960;BME280;11144;43.030;25.108;2023-02-10T06:31:20;101435.03;;;-10.37;100.00
21960;BME280;11144;43.030;25.108;2023-02-10T06:32:54;101435.56;;;-10.41;100.00
21960;BME280;11144;43.030;25.108;2023-02-10T06:34:27;101440.63;;;-10.31;100.00
21960;BME280;11144;43.030;25.108;2023-02-10T06:36:00;101444.91;;;-10.20;100.00
21960;BME280;11144;43.030;25.108;2023-02-10T06:37:36;101451.53;;;-10.12;100.00
21960;BME280;11144;43.030;25.108;2023-02-10T06:39:10;101458.81;;;-10.06;100.00
21960;BME280;11144;43.030;25.108;2023-02-10T06:40:44;101459.88;;;-10.03;100.00
21960;BME280;11144;43.030;25.108;2023-02-10T06:42:18;101446.81;;;-9.96;100.00
21960;BME280;11144;43.030;25.108;2023-02-10T06:43:51;101455.56;;;-9.82;100.00
21960;BME280;11144;43.030;25.108;2023-02-10T06:45:25;101460.75;;;-9.71;100.00
21960;BME280;11144;43.030;25.108;2023-02-10T06:46:58;101466.88;;;-9.69;100.00
21960;BME280;11144;43.030;25.108;2023-02-10T06:48:31;101455.22;;;-9.65;100.00
21960;BME280;11144;43.030;25.108;2023-02-10T06:50:05;101451.72;;;-9.56;100.00
21960;BME280;11144;43.030;25.108;2023-02-10T06:51:39;101452.88;;;-9.41;100.00
21960;BME280;11144;43.030;25.108;2023-02-10T06:53:12;101456.53;;;-9.16;100.00
21960;BME280;11144;43.030;25.108;2023-02-10T06:54:46;101450.16;;;-8.76;100.00
21960;BME280;11144;43.030;25.108;2023-02-10T06:56:19;101456.97;;;-8.31;100.00
21960;BME280;11144;43.030;25.108;2023-02-10T06:57:57;101456.50;;;-7.78;100.00
21960;BME280;11144;43.030;25.108;2023-02-10T06:59:32;101452.16;;;-7.43;100.00
21960;BME280;11144;43.030;25.108;2023-02-10T07:01:08;101460.22;;;-7.00;100.00
21960;BME280;11144;43.030;25.108;2023-02-10T07:02:42;101460.69;;;-6.68;100.00
21960;BME280;11144;43.030;25.108;2023-02-10T07:04:15;101447.66;;;-6.45;100.00
21960;BME280;11144;43.030;25.108;2023-02-10T07:05:50;101453.13;;;-6.15;100.00
21960;BME280;11144;43.030;25.108;2023-02-10T07:07:23;101458.34;;;-5.87;100.00
21960;BME280;11144;43.030;25.108;2023-02-10T07:08:57;101457.44;;;-5.60;100.00
21960;BME280;11144;43.030;25.108;2023-02-10T07:10:30;101450.44;;;-5.35;100.00
21960;BME280;11144;43.030;25.108;2023-02-10T07:12:04;101453.69;;;-5.10;100.00
21960;BME280;11144;43.030;25.108;2023-02-10T07:13:39;101454.28;;;-4.87;100.00
21960;BME280;11144;43.030;25.108;2023-02-10T07:15:12;101444.47;;;-4.63;100.00
21960;BME280;11144;43.030;25.108;2023-02-10T07:16:45;101458.41;;;-4.16;100.00
21960;BME280;11144;43.030;25.108;2023-02-10T07:18:19;101442.88;;;-3.71;100.00
21960;BME280;11144;43.030;25.108;2023-02-10T07:19:52;101457.63;;;-3.54;100.00
21960;BME280;11144;43.030;25.108;2023-02-10T07:21:25;101446.81;;;-3.31;100.00
21960;BME280;11144;43.030;25.108;2023-02-10T07:22:59;101448.66;;;-2.96;100.00
21960;BME280;11144;43.030;25.108;2023-02-10T07:24:32;101452.97;;;-2.63;100.00
21960;BME280;11144;43.030;25.108;2023-02-10T07:26:09;101452.16;;;-2.29;100.00
21960;BME280;11144;43.030;25.108;2023-02-10T07:27:43;101450.22;;;-1.98;100.00
21960;BME280;11144;43.030;25.108;2023-02-10T07:29:18;101442.66;;;-1.76;100.00
21960;BME280;11144;43.030;25.108;2023-02-10T07:30:52;101449.91;;;-1.69;100.00
21960;BME280;11144;43.030;25.108;2023-02-10T07:32:25;101449.34;;;-1.81;100.00
21960;BME280;11144;43.030;25.108;2023-02-10T07:33:58;101448.91;;;-1.72;100.00
21960;BME280;11144;43.030;25.108;2023-02-10T07:35:32;101457.00;;;-1.65;100.00
21960;BME280;11144;43.030;25.108;2023-02-10T07:37:05;101455.53;;;-1.60;100.00
21960;BME280;11144;43.030;25.108;2023-02-10T07:38:39;101455.78;;;-1.73;100.00
21960;BME280;11144;43.030;25.108;2023-02-10T07:40:12;101469.31;;;-1.61;100.00
21960;BME280;11144;43.030;25.108;2023-02-10T07:41:46;101464.88;;;-1.27;100.00
21960;BME280;11144;43.030;25.108;2023-02-10T07:43:19;101462.00;;;-0.95;100.00
21960;BME280;11144;43.030;25.108;2023-02-10T07:45:04;101462.22;;;-0.51;100.00
21960;BME280;11144;43.030;25.108;2023-02-10T07:46:37;101459.34;;;-0.38;100.00
21960;BME280;11144;43.030;25.108;2023-02-10T07:48:10;101462.63;;;-0.81;100.00
21960;BME280;11144;43.030;25.108;2023-02-10T07:49:44;101451.47;;;-0.60;100.00
21960;BME280;11144;43.030;25.108;2023-02-10T07:51:17;101450.34;;;-0.65;100.00
21960;BME280;11144;43.030;25.108;2023-02-10T07:52:50;101454.72;;;-1.03;100.00
21960;BME280;11144;43.030;25.108;2023-02-10T07:54:24;101453.41;;;-0.75;100.00
21960;BME280;11144;43.030;25.108;2023-02-10T07:55:58;101447.28;;;-0.36;100.00
21960;BME280;11144;43.030;25.108;2023-02-10T07:57:31;101445.25;;;-0.02;100.00
21960;BME280;11144;43.030;25.108;2023-02-10T07:59:05;101450.72;;;0.27;100.00
21960;BME280;11144;43.030;25.108;2023-02-10T08:00:40;101459.03;;;0.62;100.00
21960;BME280;11144;43.030;25.108;2023-02-10T08:02:14;101447.16;;;0.91;100.00
21960;BME280;11144;43.030;25.108;2023-02-10T08:03:47;101454.13;;;0.92;100.00